Time;durP1;ratioP1;P1;durP2;ratioP2;P2;SDS_P1;SDS_P2;PMS_P1;PMS_P2;Temp;Humidity;BMP_temperature;BMP_pressure;BME280_temperature;BME280_humidity;BME280_pressure;Samples;Min_cycle;Max_cycle;Signal;HPM_P1;HPM_P2
2021/01/10 00:00:19;;;;;;;;;;;5.70;74.00;;;;;;4954957;28;117955;-78
2021/01/10 00:02:45;;;;;;;;;;;5.70;74.00;;;;;;4987828;28;118599;-78
2021/01/10 00:05:12;;;;;;;;;;;5.70;73.80;;;;;;4954086;28;117467;-78
2021/01/10 00:07:37;;;;;;;;;;;5.80;73.90;;;;;;4955027;28;117631;-78
2021/01/10 00:10:09;;;;;;;;;;;5.70;73.80;;;;;;4954700;28;117758;-78
2021/01/10 00:12:35;;;;;;;;;;;5.70;73.90;;;;;;4953564;28;119892;-78
2021/01/10 00:15:01;;;;;;;;;;;5.80;73.90;;;;;;4952344;28;118210;-78
2021/01/10 00:17:26;;;;;;;;;;;5.70;73.70;;;;;;4953912;28;117308;-78
2021/01/10 00:19:52;;;;;;;;;;;5.70;73.80;;;;;;4970463;28;117328;-78
2021/01/10 00:22:18;;;;;;;;;;;5.70;73.80;;;;;;4953020;28;117632;-78
2021/01/10 00:24:44;;;;;;;;;;;5.70;73.80;;;;;;4952886;28;118714;-78
2021/01/10 00:27:11;;;;;;;;;;;5.70;73.70;;;;;;4969597;28;117456;-78
2021/01/10 00:29:36;;;;;;;;;;;5.70;73.70;;;;;;4953311;28;117842;-78
2021/01/10 00:32:02;;;;;;;;;;;5.70;73.70;;;;;;4952563;28;117717;-78
2021/01/10 00:34:28;;;;;;;;;;;5.70;73.70;;;;;;4968597;28;117420;-78
2021/01/10 00:36:53;;;;;;;;;;;5.70;73.60;;;;;;4952293;28;117767;-78
2021/01/10 00:39:19;;;;;;;;;;;5.70;73.60;;;;;;4952252;28;117859;-78
2021/01/10 00:41:45;;;;;;;;;;;5.70;73.60;;;;;;4985650;28;117564;-78
2021/01/10 00:44:10;;;;;;;;;;;5.80;73.70;;;;;;4951759;28;120177;-78
2021/01/10 00:46:36;;;;;;;;;;;5.70;73.60;;;;;;4952327;28;117355;-78
2021/01/10 00:49:01;;;;;;;;;;;5.80;73.50;;;;;;4986751;28;117274;-78
2021/01/10 00:51:27;;;;;;;;;;;5.80;73.50;;;;;;4952831;28;118850;-78
2021/01/10 00:53:52;;;;;;;;;;;5.70;73.50;;;;;;4969512;28;117578;-78
2021/01/10 00:56:18;;;;;;;;;;;5.70;73.50;;;;;;4953017;28;117443;-78
2021/01/10 00:58:43;;;;;;;;;;;5.70;73.60;;;;;;4953326;28;117913;-78
2021/01/10 01:01:09;;;;;;;;;;;5.70;73.40;;;;;;4968809;28;118512;-78
2021/01/10 01:03:35;;;;;;;;;;;5.70;73.50;;;;;;4951330;28;117403;-78
2021/01/10 01:06:00;;;;;;;;;;;5.70;73.40;;;;;;4956688;28;117542;-78
2021/01/10 01:08:26;;;;;;;;;;;5.70;73.50;;;;;;4956756;28;117594;-78
2021/01/10 01:10:51;;;;;;;;;;;5.70;73.60;;;;;;4954931;28;117809;-78
2021/01/10 01:13:17;;;;;;;;;;;5.70;73.40;;;;;;4955222;28;118794;-78
2021/01/10 01:15:42;;;;;;;;;;;5.70;73.30;;;;;;4955993;28;117981;-78
2021/01/10 01:18:08;;;;;;;;;;;5.70;73.40;;;;;;4956150;28;118074;-78
2021/01/10 01:20:34;;;;;;;;;;;5.70;73.50;;;;;;4955072;28;121283;-78
2021/01/10 01:23:03;;;;;;;;;;;5.70;73.40;;;;;;4954890;28;117557;-78
2021/01/10 01:25:28;;;;;;;;;;;5.70;74.10;;;;;;4955960;28;117725;-78
2021/01/10 01:27:54;;;;;;;;;;;5.70;73.40;;;;;;4955588;28;117697;-78
2021/01/10 01:30:20;;;;;;;;;;;5.70;73.40;;;;;;4954099;28;121321;-78
2021/01/10 01:32:45;;;;;;;;;;;5.70;73.40;;;;;;4954062;28;118748;-78
2021/01/10 01:35:11;;;;;;;;;;;5.70;73.40;;;;;;4972048;28;117501;-78
2021/01/10 01:37:36;;;;;;;;;;;5.70;73.20;;;;;;4970935;28;117510;-78
2021/01/10 01:40:05;;;;;;;;;;;5.70;73.20;;;;;;4970787;28;117579;-78
2021/01/10 01:42:30;;;;;;;;;;;5.70;73.30;;;;;;4970665;28;117581;-78
2021/01/10 01:44:56;;;;;;;;;;;5.70;73.30;;;;;;4954960;28;117484;-78
2021/01/10 01:47:22;;;;;;;;;;;5.70;73.40;;;;;;4971345;28;117341;-78
2021/01/10 01:49:47;;;;;;;;;;;5.70;73.20;;;;;;4970037;28;117562;-77
2021/01/10 01:52:13;;;;;;;;;;;5.70;73.30;;;;;;4952974;28;118344;-77
2021/01/10 01:54:38;;;;;;;;;;;5.70;73.20;;;;;;4954184;28;117526;-77
2021/01/10 01:57:04;;;;;;;;;;;5.70;73.30;;;;;;4954989;28;116918;-77
2021/01/10 01:59:29;;;;;;;;;;;5.70;73.20;;;;;;4953195;28;119663;-77
2021/01/10 02:01:55;;;;;;;;;;;5.70;73.30;;;;;;4953082;28;117714;-77
2021/01/10 02:04:30;;;;;;;;;;;5.70;73.30;;;;;;4970819;28;117488;-78
2021/01/10 02:07:17;;;;;;;;;;;5.70;73.20;;;;;;4971787;28;117803;-78
2021/01/10 02:09:43;;;;;;;;;;;5.70;73.10;;;;;;4970265;28;118720;-77
2021/01/10 02:12:09;;;;;;;;;;;5.70;73.00;;;;;;4953432;28;118986;-77
2021/01/10 02:14:38;;;;;;;;;;;5.70;73.10;;;;;;4954137;28;117416;-77
2021/01/10 02:17:03;;;;;;;;;;;5.60;72.90;;;;;;4970751;28;117709;-77
2021/01/10 02:19:32;;;;;;;;;;;5.70;73.10;;;;;;4969479;28;117555;-77
2021/01/10 02:21:58;;;;;;;;;;;5.70;73.10;;;;;;4969802;28;117404;-77
2021/01/10 02:24:23;;;;;;;;;;;5.70;73.10;;;;;;4970660;28;117770;-77
2021/01/10 02:26:49;;;;;;;;;;;5.70;73.10;;;;;;4954183;28;117857;-77
2021/01/10 02:29:14;;;;;;;;;;;5.70;73.10;;;;;;4953637;28;119086;-77
2021/01/10 02:31:40;;;;;;;;;;;5.70;73.00;;;;;;4969938;28;117352;-77
2021/01/10 02:34:06;;;;;;;;;;;5.60;73.00;;;;;;4970931;28;117907;-77
2021/01/10 02:36:37;;;;;;;;;;;5.70;73.00;;;;;;4954284;28;117462;-78
2021/01/10 02:39:09;;;;;;;;;;;5.70;73.00;;;;;;4969075;28;120439;-78
2021/01/10 02:42:04;;;;;;;;;;;5.70;72.90;;;;;;4969094;28;118850;-78
2021/01/10 02:44:40;;;;;;;;;;;5.70;72.90;;;;;;4978755;28;117631;-78
2021/01/10 02:47:05;;;;;;;;;;;5.70;72.90;;;;;;4954375;28;117873;-78
2021/01/10 02:49:31;;;;;;;;;;;5.70;72.80;;;;;;4969207;28;118638;-78
2021/01/10 02:51:56;;;;;;;;;;;5.70;72.90;;;;;;4968789;28;118280;-78
2021/01/10 02:54:22;;;;;;;;;;;5.60;72.90;;;;;;4954026;28;117493;-78
2021/01/10 02:57:07;;;;;;;;;;;5.60;72.70;;;;;;4953843;28;117811;-78
2021/01/10 02:59:33;;;;;;;;;;;5.60;72.80;;;;;;4986034;28;117504;-78
2021/01/10 03:02:00;;;;;;;;;;;5.60;72.70;;;;;;4952304;28;119000;-79
2021/01/10 03:04:26;;;;;;;;;;;5.60;72.80;;;;;;4953210;28;117339;-79
2021/01/10 03:06:54;;;;;;;;;;;5.60;72.70;;;;;;4952954;28;117800;-79
2021/01/10 03:09:19;;;;;;;;;;;5.60;72.70;;;;;;4952248;28;120921;-78
2021/01/10 03:11:45;;;;;;;;;;;5.60;72.70;;;;;;4952210;28;119298;-78
2021/01/10 03:14:10;;;;;;;;;;;5.60;72.60;;;;;;4953132;28;117597;-78
2021/01/10 03:16:36;;;;;;;;;;;5.60;72.70;;;;;;4953489;28;117561;-78
2021/01/10 03:19:02;;;;;;;;;;;5.60;72.70;;;;;;4968573;28;118729;-78
2021/01/10 03:21:27;;;;;;;;;;;5.60;72.60;;;;;;4968838;28;120687;-78
2021/01/10 03:23:54;;;;;;;;;;;5.60;72.70;;;;;;4953231;28;117805;-78
2021/01/10 03:26:20;;;;;;;;;;;5.60;72.70;;;;;;4987672;28;117358;-78
2021/01/10 03:28:45;;;;;;;;;;;5.60;72.50;;;;;;4968550;28;118716;-78
2021/01/10 03:31:11;;;;;;;;;;;5.60;72.50;;;;;;4951683;28;118622;-78
2021/01/10 03:33:37;;;;;;;;;;;5.60;72.50;;;;;;4969533;28;117355;-78
2021/01/10 03:36:03;;;;;;;;;;;5.60;72.70;;;;;;4953168;28;117846;-78
2021/01/10 03:38:29;;;;;;;;;;;5.60;72.50;;;;;;4952121;28;120653;-79
2021/01/10 03:40:54;;;;;;;;;;;5.60;72.50;;;;;;4951595;28;119647;-78
2021/01/10 03:43:20;;;;;;;;;;;5.60;72.50;;;;;;4952959;28;116667;-78
2021/01/10 03:45:45;;;;;;;;;;;5.60;72.50;;;;;;4969419;28;117921;-78
2021/01/10 03:48:11;;;;;;;;;;;5.60;72.50;;;;;;4968374;28;120192;-78
2021/01/10 03:50:36;;;;;;;;;;;5.60;72.30;;;;;;4967801;28;118384;-78
2021/01/10 03:53:02;;;;;;;;;;;5.60;72.40;;;;;;4952560;28;117601;-78
2021/01/10 03:55:27;;;;;;;;;;;5.60;72.60;;;;;;4969069;28;117907;-78
2021/01/10 03:57:53;;;;;;;;;;;5.60;72.40;;;;;;4985612;28;118555;-78
2021/01/10 04:00:19;;;;;;;;;;;5.60;72.30;;;;;;4951594;28;120477;-78
2021/01/10 04:02:44;;;;;;;;;;;5.60;72.30;;;;;;4969240;28;117970;-78
2021/01/10 04:05:10;;;;;;;;;;;5.60;72.40;;;;;;4952590;28;117888;-78
2021/01/10 04:07:35;;;;;;;;;;;5.60;72.40;;;;;;4951190;28;121668;-78
2021/01/10 04:10:01;;;;;;;;;;;5.60;72.40;;;;;;4967755;28;117367;-78
2021/01/10 04:12:26;;;;;;;;;;;5.60;72.40;;;;;;4952129;28;117527;-78
2021/01/10 04:14:55;;;;;;;;;;;5.60;72.30;;;;;;4969063;28;117743;-78
2021/01/10 04:17:22;;;;;;;;;;;5.60;72.40;;;;;;4951248;28;119468;-78
2021/01/10 04:19:47;;;;;;;;;;;5.60;72.20;;;;;;4966885;28;118008;-78
2021/01/10 04:22:13;;;;;;;;;;;5.50;72.20;;;;;;4951453;28;117574;-78
2021/01/10 04:24:38;;;;;;;;;;;5.60;72.20;;;;;;4952092;28;118056;-78
2021/01/10 04:27:04;;;;;;;;;;;5.60;72.30;;;;;;4950553;28;119434;-78
2021/01/10 04:29:29;;;;;;;;;;;5.60;72.20;;;;;;4950998;28;118887;-78
2021/01/10 04:31:55;;;;;;;;;;;5.60;72.20;;;;;;4951442;28;117648;-78
2021/01/10 04:34:20;;;;;;;;;;;5.60;72.10;;;;;;4968809;28;117382;-78
2021/01/10 04:36:46;;;;;;;;;;;5.60;72.30;;;;;;4967604;28;118695;-78
2021/01/10 04:39:11;;;;;;;;;;;5.60;72.20;;;;;;4949495;28;118253;-78
2021/01/10 04:41:37;;;;;;;;;;;5.60;72.20;;;;;;4952020;28;117469;-78
2021/01/10 04:44:02;;;;;;;;;;;5.50;72.00;;;;;;4951105;28;117511;-78
2021/01/10 04:46:28;;;;;;;;;;;5.50;72.00;;;;;;4950497;28;117462;-78
2021/01/10 04:48:54;;;;;;;;;;;5.60;72.20;;;;;;4967119;28;117393;-78
2021/01/10 04:51:19;;;;;;;;;;;5.50;72.10;;;;;;4951109;28;117522;-78
2021/01/10 04:53:46;;;;;;;;;;;5.50;72.10;;;;;;4951725;28;117463;-78
2021/01/10 04:56:12;;;;;;;;;;;5.50;72.00;;;;;;4966844;28;118354;-78
2021/01/10 04:58:37;;;;;;;;;;;5.50;72.10;;;;;;4950321;28;118409;-78
2021/01/10 05:01:03;;;;;;;;;;;5.50;72.00;;;;;;4967515;28;117916;-78
2021/01/10 05:03:32;;;;;;;;;;;5.50;72.10;;;;;;4951581;28;117979;-78
2021/01/10 05:05:57;;;;;;;;;;;5.50;72.00;;;;;;4966800;28;117457;-78
2021/01/10 05:08:25;;;;;;;;;;;5.50;72.10;;;;;;4966294;28;117853;-78
2021/01/10 05:10:50;;;;;;;;;;;5.50;72.10;;;;;;4951036;28;117541;-78
2021/01/10 05:13:16;;;;;;;;;;;5.50;72.00;;;;;;4968125;28;117444;-78
2021/01/10 05:15:42;;;;;;;;;;;5.50;72.00;;;;;;4950361;28;119849;-78
2021/01/10 05:18:08;;;;;;;;;;;5.50;72.00;;;;;;4966634;28;117697;-78
2021/01/10 05:20:33;;;;;;;;;;;5.50;72.10;;;;;;4950774;28;116708;-78
2021/01/10 05:22:59;;;;;;;;;;;5.50;72.00;;;;;;4951273;28;117557;-78
2021/01/10 05:25:25;;;;;;;;;;;5.50;72.00;;;;;;4966721;28;117333;-78
2021/01/10 05:27:54;;;;;;;;;;;5.50;72.00;;;;;;4949901;28;117494;-78
2021/01/10 05:30:26;;;;;;;;;;;5.50;72.00;;;;;;4950569;28;117546;-78
2021/01/10 05:33:01;;;;;;;;;;;5.50;72.00;;;;;;4966961;28;117638;-78
2021/01/10 05:35:27;;;;;;;;;;;5.50;72.00;;;;;;4966599;28;117443;-78
2021/01/10 05:37:56;;;;;;;;;;;5.50;72.00;;;;;;4949966;28;119531;-79
2021/01/10 05:40:27;;;;;;;;;;;5.50;72.00;;;;;;4967028;28;117968;-79
2021/01/10 05:42:52;;;;;;;;;;;5.50;72.00;;;;;;4967415;28;117897;-79
2021/01/10 05:45:31;;;;;;;;;;;5.50;72.00;;;;;;4949736;28;117500;-78
2021/01/10 05:47:56;;;;;;;;;;;5.50;72.00;;;;;;4966859;28;117919;-79
2021/01/10 05:50:22;;;;;;;;;;;5.50;72.00;;;;;;4951476;28;117521;-79
2021/01/10 05:52:47;;;;;;;;;;;5.50;71.90;;;;;;4970918;28;117825;-79
2021/01/10 05:55:13;;;;;;;;;;;5.50;71.90;;;;;;4969652;28;118534;-79
2021/01/10 05:57:38;;;;;;;;;;;5.50;71.90;;;;;;4968961;28;117538;-79
2021/01/10 06:00:05;;;;;;;;;;;5.50;71.90;;;;;;4970427;28;117900;-79
2021/01/10 06:02:31;;;;;;;;;;;5.50;72.00;;;;;;4970951;28;117776;-79
2021/01/10 06:05:12;;;;;;;;;;;5.50;71.90;;;;;;4952730;28;121484;-79
2021/01/10 06:07:38;;;;;;;;;;;5.50;72.00;;;;;;4969586;28;117727;-79
2021/01/10 06:10:05;;;;;;;;;;;5.50;72.00;;;;;;4969986;28;117735;-79
2021/01/10 06:12:30;;;;;;;;;;;5.50;72.00;;;;;;4970796;28;117282;-79
2021/01/10 06:15:09;;;;;;;;;;;5.50;71.90;;;;;;4969534;28;117561;-79
2021/01/10 06:17:39;;;;;;;;;;;5.50;71.90;;;;;;4969305;28;117675;-79
2021/01/10 06:20:07;;;;;;;;;;;5.50;71.80;;;;;;4954200;28;117738;-79
2021/01/10 06:22:32;;;;;;;;;;;5.50;72.00;;;;;;4969886;28;117328;-79
2021/01/10 06:24:58;;;;;;;;;;;5.50;72.00;;;;;;4952810;28;117395;-79
2021/01/10 06:27:24;;;;;;;;;;;5.50;72.00;;;;;;4970291;28;118144;-79
2021/01/10 06:29:53;;;;;;;;;;;5.50;72.00;;;;;;4970458;28;117500;-79
2021/01/10 06:32:19;;;;;;;;;;;5.50;71.70;;;;;;4954071;28;117793;-78
2021/01/10 06:34:44;;;;;;;;;;;5.50;71.90;;;;;;4953441;28;120633;-78
2021/01/10 06:37:10;;;;;;;;;;;5.50;71.90;;;;;;4952171;28;119412;-78
2021/01/10 06:39:37;;;;;;;;;;;5.50;71.90;;;;;;4953878;28;117762;-78
2021/01/10 06:42:07;;;;;;;;;;;5.50;71.90;;;;;;4970310;28;117762;-78
2021/01/10 06:44:34;;;;;;;;;;;5.50;71.90;;;;;;4968922;28;120500;-78
2021/01/10 06:46:59;;;;;;;;;;;5.50;71.90;;;;;;4968475;28;117532;-78
2021/01/10 06:49:25;;;;;;;;;;;5.50;71.90;;;;;;4953473;28;118136;-78
2021/01/10 06:51:51;;;;;;;;;;;5.50;71.80;;;;;;4954015;28;117321;-78
2021/01/10 06:54:17;;;;;;;;;;;5.50;71.80;;;;;;4952580;28;120875;-78
2021/01/10 06:56:49;;;;;;;;;;;5.50;71.80;;;;;;4969241;28;118051;-78
2021/01/10 06:59:17;;;;;;;;;;;5.50;71.90;;;;;;4953155;28;117563;-78
2021/01/10 07:01:50;;;;;;;;;;;5.50;71.80;;;;;;4952632;28;117771;-78
2021/01/10 07:04:16;;;;;;;;;;;5.50;71.80;;;;;;4969072;28;117775;-78
2021/01/10 07:06:51;;;;;;;;;;;5.50;71.70;;;;;;4969645;28;117403;-78
2021/01/10 07:09:17;;;;;;;;;;;5.50;71.90;;;;;;4953329;28;117435;-78
2021/01/10 07:11:42;;;;;;;;;;;5.50;71.90;;;;;;4953268;28;117395;-78
2021/01/10 07:14:11;;;;;;;;;;;5.50;71.90;;;;;;4952879;28;117277;-78
2021/01/10 07:16:37;;;;;;;;;;;5.50;71.90;;;;;;4968887;28;119749;-78
2021/01/10 07:19:03;;;;;;;;;;;5.50;71.70;;;;;;4969970;28;117770;-78
2021/01/10 07:21:29;;;;;;;;;;;5.50;71.90;;;;;;4953355;28;117880;-78
2021/01/10 07:24:13;;;;;;;;;;;5.50;71.90;;;;;;4952290;28;118620;-78
2021/01/10 07:26:41;;;;;;;;;;;5.50;71.90;;;;;;4968608;28;119544;-78
2021/01/10 07:29:26;;;;;;;;;;;5.50;71.90;;;;;;4969132;28;117874;-78
2021/01/10 07:31:58;;;;;;;;;;;5.50;71.80;;;;;;4970044;28;118292;-78
2021/01/10 07:34:24;;;;;;;;;;;5.50;71.90;;;;;;4952535;28;117919;-78
2021/01/10 07:36:50;;;;;;;;;;;5.50;71.80;;;;;;4951382;28;120125;-78
2021/01/10 07:39:16;;;;;;;;;;;5.50;71.90;;;;;;4952870;28;117526;-78
2021/01/10 07:41:42;;;;;;;;;;;5.40;71.80;;;;;;4969856;28;117680;-78
2021/01/10 07:44:08;;;;;;;;;;;5.50;71.80;;;;;;4952008;28;120388;-78
2021/01/10 07:46:52;;;;;;;;;;;5.50;71.70;;;;;;4951821;28;119371;-78
2021/01/10 07:49:18;;;;;;;;;;;5.40;71.70;;;;;;4952631;28;117473;-78
2021/01/10 07:51:47;;;;;;;;;;;5.40;71.90;;;;;;4969650;28;117923;-78
2021/01/10 07:54:13;;;;;;;;;;;5.50;71.80;;;;;;4969064;28;117582;-78
2021/01/10 07:56:38;;;;;;;;;;;5.40;71.80;;;;;;4951762;28;118239;-78
2021/01/10 07:59:14;;;;;;;;;;;5.40;71.80;;;;;;4952168;28;117702;-78
2021/01/10 08:01:46;;;;;;;;;;;5.50;71.80;;;;;;4969169;28;117553;-78
2021/01/10 08:04:12;;;;;;;;;;;5.40;71.70;;;;;;4951767;28;119716;-78
2021/01/10 08:06:54;;;;;;;;;;;5.40;71.90;;;;;;4968312;28;117926;-78
2021/01/10 08:09:19;;;;;;;;;;;5.40;71.80;;;;;;4969247;28;117765;-79
2021/01/10 08:11:51;;;;;;;;;;;5.40;71.80;;;;;;4956508;28;117936;-79
2021/01/10 08:14:17;;;;;;;;;;;5.40;71.90;;;;;;4955234;28;120529;-79
2021/01/10 08:16:42;;;;;;;;;;;5.50;71.80;;;;;;4955637;28;117401;-79
2021/01/10 08:19:08;;;;;;;;;;;5.40;71.70;;;;;;4956821;28;117627;-79
2021/01/10 08:21:34;;;;;;;;;;;5.40;71.80;;;;;;4956878;28;117369;-79
2021/01/10 08:23:59;;;;;;;;;;;5.40;71.70;;;;;;4955443;28;120677;-79
2021/01/10 08:26:25;;;;;;;;;;;5.40;71.70;;;;;;4954945;28;117801;-79
2021/01/10 08:28:54;;;;;;;;;;;5.50;71.80;;;;;;4971981;28;117541;-79
2021/01/10 08:31:20;;;;;;;;;;;5.40;71.70;;;;;;4956349;28;117766;-79
2021/01/10 08:33:46;;;;;;;;;;;5.40;71.70;;;;;;4969952;28;117592;-79
2021/01/10 08:36:12;;;;;;;;;;;5.40;71.80;;;;;;4952864;28;117724;-79
2021/01/10 08:38:43;;;;;;;;;;;5.40;71.90;;;;;;4988238;28;117576;-79
2021/01/10 08:41:09;;;;;;;;;;;5.50;71.70;;;;;;4970922;28;119500;-78
2021/01/10 08:43:46;;;;;;;;;;;5.40;71.70;;;;;;4953347;28;118775;-78
2021/01/10 08:46:11;;;;;;;;;;;5.40;71.80;;;;;;4953714;28;117711;-78
2021/01/10 08:48:37;;;;;;;;;;;5.40;71.70;;;;;;4988344;28;117678;-78
2021/01/10 08:51:02;;;;;;;;;;;5.40;71.80;;;;;;4953347;28;117307;-78
2021/01/10 08:53:38;;;;;;;;;;;5.40;71.90;;;;;;4952846;28;120273;-78
2021/01/10 08:56:11;;;;;;;;;;;5.40;71.70;;;;;;4952704;28;119761;-78
2021/01/10 08:58:37;;;;;;;;;;;5.40;71.70;;;;;;4953863;28;117410;-78
2021/01/10 09:01:02;;;;;;;;;;;5.40;71.70;;;;;;4970383;28;117781;-78
2021/01/10 09:03:28;;;;;;;;;;;5.40;71.70;;;;;;4952205;28;119144;-78
2021/01/10 09:05:54;;;;;;;;;;;5.40;71.70;;;;;;4952310;28;120238;-78
2021/01/10 09:08:24;;;;;;;;;;;5.40;71.70;;;;;;4953750;28;117510;-78
2021/01/10 09:10:55;;;;;;;;;;;5.40;71.60;;;;;;4953825;28;117800;-78
2021/01/10 09:13:21;;;;;;;;;;;5.40;71.60;;;;;;4951938;28;119832;-78
2021/01/10 09:15:46;;;;;;;;;;;5.40;71.60;;;;;;4968719;28;117544;-78
2021/01/10 09:18:17;;;;;;;;;;;5.40;71.70;;;;;;4969649;28;117498;-78
2021/01/10 09:20:46;;;;;;;;;;;5.40;71.60;;;;;;4952937;28;117291;-78
2021/01/10 09:23:11;;;;;;;;;;;5.40;71.70;;;;;;4986171;28;117760;-78
2021/01/10 09:25:37;;;;;;;;;;;5.40;71.70;;;;;;4953218;28;118452;-78
2021/01/10 09:28:15;;;;;;;;;;;5.40;71.70;;;;;;4955718;28;117477;-78
2021/01/10 09:30:42;;;;;;;;;;;5.50;71.70;;;;;;4973230;28;117469;-78
2021/01/10 09:33:07;;;;;;;;;;;5.50;71.60;;;;;;4957727;28;118451;-78
2021/01/10 09:35:46;;;;;;;;;;;5.50;71.40;;;;;;4957059;28;118446;-78
2021/01/10 09:38:12;;;;;;;;;;;5.50;71.60;;;;;;4957812;28;117530;-78
2021/01/10 09:40:38;;;;;;;;;;;5.50;71.50;;;;;;4957066;28;117590;-78
2021/01/10 09:43:03;;;;;;;;;;;5.40;71.40;;;;;;4956890;28;120396;-78
2021/01/10 09:45:33;;;;;;;;;;;5.50;71.40;;;;;;4956623;28;118345;-78
2021/01/10 09:47:58;;;;;;;;;;;5.50;71.40;;;;;;4957755;28;117690;-79
2021/01/10 09:50:24;;;;;;;;;;;5.50;71.40;;;;;;4974075;28;118664;-79
2021/01/10 09:52:50;;;;;;;;;;;5.50;71.30;;;;;;4973738;28;117552;-78
2021/01/10 09:55:16;;;;;;;;;;;5.50;71.40;;;;;;4972760;28;120640;-78
2021/01/10 09:57:42;;;;;;;;;;;5.50;71.40;;;;;;4974436;28;117463;-78
2021/01/10 10:00:13;;;;;;;;;;;5.50;71.30;;;;;;4957344;28;117948;-78
2021/01/10 10:02:39;;;;;;;;;;;5.50;71.40;;;;;;4957657;28;118448;-78
2021/01/10 10:05:08;;;;;;;;;;;5.50;71.30;;;;;;4955806;28;117671;-78
2021/01/10 10:07:41;;;;;;;;;;;5.50;71.30;;;;;;4957233;28;117473;-78
2021/01/10 10:10:26;;;;;;;;;;;5.50;71.40;;;;;;4957325;28;117586;-78
2021/01/10 10:12:52;;;;;;;;;;;5.40;71.30;;;;;;4957044;28;120692;-78
2021/01/10 10:15:17;;;;;;;;;;;5.40;71.40;;;;;;4957049;28;119471;-78
2021/01/10 10:17:43;;;;;;;;;;;5.40;71.40;;;;;;4957508;28;117826;-78
2021/01/10 10:20:09;;;;;;;;;;;5.40;71.40;;;;;;4957492;28;117685;-78
2021/01/10 10:22:35;;;;;;;;;;;5.40;71.40;;;;;;4957036;28;117978;-78
2021/01/10 10:25:01;;;;;;;;;;;5.50;71.50;;;;;;4956608;28;118725;-78
2021/01/10 10:27:28;;;;;;;;;;;5.50;71.50;;;;;;4957050;28;117513;-78
2021/01/10 10:29:53;;;;;;;;;;;5.40;71.60;;;;;;4956404;28;117786;-79
2021/01/10 10:32:19;;;;;;;;;;;5.40;71.50;;;;;;4955597;28;119216;-78
2021/01/10 10:34:44;;;;;;;;;;;5.40;71.60;;;;;;4955253;28;120501;-78
2021/01/10 10:37:10;;;;;;;;;;;5.40;71.60;;;;;;4954828;28;117360;-79
2021/01/10 10:39:36;;;;;;;;;;;5.40;71.60;;;;;;4972857;28;117709;-79
2021/01/10 10:42:01;;;;;;;;;;;5.40;71.60;;;;;;4954082;28;120555;-79
2021/01/10 10:44:27;;;;;;;;;;;5.40;71.70;;;;;;4954595;28;120633;-79
2021/01/10 10:46:53;;;;;;;;;;;5.40;71.70;;;;;;4960096;28;117525;-79
2021/01/10 10:49:18;;;;;;;;;;;5.40;71.70;;;;;;4960244;28;117952;-77
2021/01/10 10:51:44;;;;;;;;;;;5.40;71.70;;;;;;4959181;28;119597;-77
2021/01/10 10:54:11;;;;;;;;;;;5.40;71.70;;;;;;4958914;28;117450;-77
2021/01/10 10:56:36;;;;;;;;;;;5.40;71.70;;;;;;4959855;28;117497;-77
2021/01/10 10:59:02;;;;;;;;;;;5.40;71.70;;;;;;4959861;28;117379;-77
2021/01/10 11:01:41;;;;;;;;;;;5.40;71.80;;;;;;4959224;28;121172;-77
2021/01/10 11:04:06;;;;;;;;;;;5.40;71.80;;;;;;4974945;28;117496;-77
2021/01/10 11:06:32;;;;;;;;;;;5.40;71.80;;;;;;4959278;28;117462;-77
2021/01/10 11:08:58;;;;;;;;;;;5.40;71.90;;;;;;4976079;28;117528;-77
2021/01/10 11:11:32;;;;;;;;;;;5.40;71.80;;;;;;4958657;28;119280;-77
2021/01/10 11:13:57;;;;;;;;;;;5.30;71.90;;;;;;4958045;28;118663;-77
2021/01/10 11:16:30;;;;;;;;;;;5.40;72.00;;;;;;4975251;28;117518;-77
2021/01/10 11:18:55;;;;;;;;;;;5.30;71.80;;;;;;4975156;28;117345;-77
2021/01/10 11:21:25;;;;;;;;;;;5.30;71.90;;;;;;4957653;28;118688;-77
2021/01/10 11:23:51;;;;;;;;;;;5.40;71.90;;;;;;4973459;28;117750;-77
2021/01/10 11:26:16;;;;;;;;;;;5.30;71.90;;;;;;4974645;28;117484;-77
2021/01/10 11:28:42;;;;;;;;;;;5.30;71.90;;;;;;4958315;28;118453;-77
2021/01/10 11:31:07;;;;;;;;;;;5.40;72.00;;;;;;4956313;28;119570;-77
2021/01/10 11:33:33;;;;;;;;;;;5.30;71.90;;;;;;4956002;28;117623;-77
2021/01/10 11:35:58;;;;;;;;;;;5.30;71.90;;;;;;4956976;28;117936;-77
2021/01/10 11:38:24;;;;;;;;;;;5.30;71.90;;;;;;4957074;28;117480;-77
2021/01/10 11:40:49;;;;;;;;;;;5.30;71.90;;;;;;4971933;28;117248;-77
2021/01/10 11:43:15;;;;;;;;;;;5.40;71.90;;;;;;4954520;28;118101;-77
2021/01/10 11:45:41;;;;;;;;;;;5.30;72.50;;;;;;4955388;28;117367;-77
2021/01/10 11:48:06;;;;;;;;;;;5.40;71.90;;;;;;4955157;28;117593;-77
2021/01/10 11:50:32;;;;;;;;;;;5.40;71.90;;;;;;4988294;28;118561;-77
2021/01/10 11:52:58;;;;;;;;;;;5.40;72.00;;;;;;4954275;28;117564;-77
2021/01/10 11:55:23;;;;;;;;;;;5.40;71.80;;;;;;4971323;28;117435;-77
2021/01/10 11:57:49;;;;;;;;;;;5.30;71.80;;;;;;4954419;28;117463;-78
2021/01/10 12:00:14;;;;;;;;;;;5.40;71.90;;;;;;4956327;28;120263;-78
2021/01/10 12:02:40;;;;;;;;;;;5.40;71.90;;;;;;4957412;28;120064;-78
2021/01/10 12:05:06;;;;;;;;;;;5.40;71.90;;;;;;4974295;28;117532;-78
2021/01/10 12:07:32;;;;;;;;;;;5.40;71.80;;;;;;4973995;28;117847;-78
2021/01/10 12:09:57;;;;;;;;;;;5.40;71.80;;;;;;4956659;28;119458;-78
2021/01/10 12:12:23;;;;;;;;;;;5.40;71.90;;;;;;4973514;28;117595;-79
2021/01/10 12:14:48;;;;;;;;;;;5.40;71.90;;;;;;4957127;28;117342;-78
2021/01/10 12:17:14;;;;;;;;;;;5.40;71.80;;;;;;4957807;28;117306;-78
2021/01/10 12:19:39;;;;;;;;;;;5.40;71.80;;;;;;4972084;28;117636;-78
2021/01/10 12:22:05;;;;;;;;;;;5.40;71.80;;;;;;4955969;28;118532;-78
2021/01/10 12:24:30;;;;;;;;;;;5.40;71.70;;;;;;4956639;28;117597;-78
2021/01/10 12:26:56;;;;;;;;;;;5.30;71.80;;;;;;4973660;28;117592;-78
2021/01/10 12:29:21;;;;;;;;;;;5.40;72.00;;;;;;4955847;28;119672;-78
2021/01/10 12:31:47;;;;;;;;;;;5.40;71.90;;;;;;4970763;28;119822;-78
2021/01/10 12:34:13;;;;;;;;;;;5.40;71.90;;;;;;4972642;28;117460;-78
2021/01/10 12:36:39;;;;;;;;;;;5.30;71.80;;;;;;4972292;28;117525;-78
2021/01/10 12:39:05;;;;;;;;;;;5.40;71.80;;;;;;4954898;28;117474;-78
2021/01/10 12:41:30;;;;;;;;;;;5.30;71.70;;;;;;4955489;28;118753;-78
2021/01/10 12:43:56;;;;;;;;;;;5.30;71.80;;;;;;4956147;28;117856;-78
2021/01/10 12:46:28;;;;;;;;;;;5.30;71.90;;;;;;4973181;28;117804;-78
2021/01/10 12:48:53;;;;;;;;;;;5.40;71.90;;;;;;4955317;28;119505;-78
2021/01/10 12:51:19;;;;;;;;;;;5.30;71.80;;;;;;4954509;28;119557;-78
2021/01/10 12:53:44;;;;;;;;;;;5.30;71.80;;;;;;4972047;28;117527;-78
2021/01/10 12:56:14;;;;;;;;;;;5.40;71.90;;;;;;4954715;28;117510;-78
2021/01/10 12:58:40;;;;;;;;;;;5.40;71.90;;;;;;4954194;28;117571;-78
2021/01/10 13:01:05;;;;;;;;;;;5.40;71.90;;;;;;4972456;28;117284;-78
2021/01/10 13:03:31;;;;;;;;;;;5.40;71.80;;;;;;4957402;28;118114;-78
2021/01/10 13:05:56;;;;;;;;;;;5.30;71.80;;;;;;4974354;28;117818;-78
2021/01/10 13:08:22;;;;;;;;;;;5.40;71.80;;;;;;4956054;28;119330;-78
2021/01/10 13:10:48;;;;;;;;;;;5.40;71.90;;;;;;4956054;28;117754;-78
2021/01/10 13:13:13;;;;;;;;;;;5.30;71.70;;;;;;4957665;28;117813;-78
2021/01/10 13:15:39;;;;;;;;;;;5.40;71.70;;;;;;4976185;28;117546;-78
2021/01/10 13:18:04;;;;;;;;;;;5.30;71.90;;;;;;4974445;28;118354;-78
2021/01/10 13:20:30;;;;;;;;;;;5.30;71.80;;;;;;4956934;28;119449;-78
2021/01/10 13:22:57;;;;;;;;;;;5.30;71.70;;;;;;4957873;28;117499;-78
2021/01/10 13:25:22;;;;;;;;;;;5.30;71.70;;;;;;4959450;28;117876;-78
2021/01/10 13:27:48;;;;;;;;;;;5.40;71.90;;;;;;4958359;28;117596;-78
2021/01/10 13:30:13;;;;;;;;;;;5.30;71.80;;;;;;4958174;28;118616;-78
2021/01/10 13:32:39;;;;;;;;;;;5.40;71.90;;;;;;4975367;28;117588;-78
2021/01/10 13:35:05;;;;;;;;;;;5.30;72.10;;;;;;4959360;28;117323;-78
2021/01/10 13:37:30;;;;;;;;;;;5.40;71.80;;;;;;4957889;28;119651;-78
2021/01/10 13:39:56;;;;;;;;;;;5.30;71.60;;;;;;4957714;28;117698;-78
2021/01/10 13:42:21;;;;;;;;;;;5.40;71.70;;;;;;4958770;28;117542;-78
2021/01/10 13:44:47;;;;;;;;;;;5.30;71.70;;;;;;4974677;28;117962;-78
2021/01/10 13:47:12;;;;;;;;;;;5.30;71.80;;;;;;4957802;28;120576;-78
2021/01/10 13:49:38;;;;;;;;;;;5.30;71.90;;;;;;4957659;28;117707;-78
2021/01/10 13:52:04;;;;;;;;;;;5.30;71.80;;;;;;4974203;28;117440;-78
2021/01/10 13:54:29;;;;;;;;;;;5.30;71.60;;;;;;4974692;28;117539;-78
2021/01/10 13:56:55;;;;;;;;;;;5.30;71.80;;;;;;4956906;28;119118;-78
2021/01/10 13:59:21;;;;;;;;;;;5.30;71.80;;;;;;4973257;28;118180;-78
2021/01/10 14:01:46;;;;;;;;;;;5.30;71.70;;;;;;4957642;28;117405;-78
2021/01/10 14:04:12;;;;;;;;;;;5.40;71.90;;;;;;4974146;28;116950;-78
2021/01/10 14:06:37;;;;;;;;;;;5.30;71.80;;;;;;4955970;28;120856;-78
2021/01/10 14:09:03;;;;;;;;;;;5.30;71.80;;;;;;4954674;28;119519;-78
2021/01/10 14:11:29;;;;;;;;;;;5.30;71.80;;;;;;4956032;28;117517;-78
2021/01/10 14:13:55;;;;;;;;;;;5.30;71.80;;;;;;4957419;28;117825;-78